In Rescue
 
Open Full Screen Window  High Contrast Mode
Wind Gusting 17 knots
13
May 20, 2019 3:42 PM EDT
Weather Information
Wind Direction
  270 °
Wind Speed
  13 kt (15 mph)
Wind Gust
  17 kt (20 mph)
Altimeter
30.04 in
Visibility
10 SM
Temperature
13° C
55° F
Dewpoint
09° C
48° F
Humidity
77%
Sky Condition
Overcast @ 3,200 ft
Broken @ 2,400 ft
MVFR

METAR KAXV 201942Z AUTO 27013G17KT 10SM BKN024 OVC032 13/09 A3004 RMK AO2

FAA Disclaimer: The data displayed is for advisory purposes only and is not to be used for flight planning or operations.